Time;durP1;ratioP1;P1;durP2;ratioP2;P2;SDS_P1;SDS_P2;PMS_P1;PMS_P2;Temp;Humidity;BMP_temperature;BMP_pressure;BME280_temperature;BME280_humidity;BME280_pressure;Samples;Min_cycle;Max_cycle;Signal;HPM_P1;HPM_P2
2021/05/24 00:02:16;;;;;;;8.63;3.15;;;;;;;10.60;68.96;99010.09;5076422;28;20441;-68
2021/05/24 00:04:42;;;;;;;14.77;3.40;;;;;;;10.58;69.00;99010.38;5079671;28;20049;-68
2021/05/24 00:07:08;;;;;;;9.88;3.30;;;;;;;10.58;69.11;99004.09;5079336;28;20131;-68
2021/05/24 00:09:36;;;;;;;13.70;3.30;;;;;;;10.50;69.39;99011.84;5078864;28;20117;-68
2021/05/24 00:12:03;;;;;;;10.95;3.35;;;;;;;10.52;69.34;99008.00;5077831;28;20041;-68
2021/05/24 00:14:30;;;;;;;9.63;3.60;;;;;;;10.56;69.09;99006.31;5080657;28;20047;-69
2021/05/24 00:16:57;;;;;;;12.93;3.40;;;;;;;10.49;69.33;99017.59;5076363;28;20504;-65
2021/05/24 00:19:23;;;;;;;9.55;3.75;;;;;;;10.57;68.96;99010.69;5078379;28;20040;-66
2021/05/24 00:21:49;;;;;;;12.00;3.25;;;;;;;10.43;69.55;99014.13;5077667;28;20048;-67
2021/05/24 00:24:15;;;;;;;9.20;3.13;;;;;;;10.45;69.36;99013.81;5071265;28;20052;-68
2021/05/24 00:26:42;;;;;;;11.57;2.92;;;;;;;10.25;69.91;99007.47;5076619;28;20053;-68
2021/05/24 00:29:14;;;;;;;8.73;2.78;;;;;;;10.28;69.90;99026.00;5078485;28;20050;-67
2021/05/24 00:31:41;;;;;;;8.43;2.50;;;;;;;10.30;69.55;99018.38;5080935;28;20561;-68
2021/05/24 00:34:08;;;;;;;5.88;2.50;;;;;;;10.42;69.04;99022.59;5080197;28;20054;-66
2021/05/24 00:36:34;;;;;;;9.68;2.58;;;;;;;10.46;68.78;99040.88;5079469;28;20573;-67
2021/05/24 00:39:01;;;;;;;6.20;2.00;;;;;;;10.42;68.84;99039.00;5076403;28;20059;-68
2021/05/24 00:41:27;;;;;;;7.57;2.88;;;;;;;10.36;68.81;99019.91;5079545;28;20421;-68
2021/05/24 00:43:53;;;;;;;13.07;2.58;;;;;;;10.39;68.89;99036.81;5079981;28;20043;-68
2021/05/24 00:46:19;;;;;;;6.88;2.35;;;;;;;10.31;69.12;99024.63;5079441;28;20457;-68
2021/05/24 00:48:45;;;;;;;10.27;2.27;;;;;;;10.27;69.12;99027.13;5076495;28;20112;-68
2021/05/24 00:51:12;;;;;;;8.27;2.35;;;;;;;10.22;69.18;99021.72;5080494;28;20094;-68
2021/05/24 00:53:38;;;;;;;13.68;2.60;;;;;;;10.26;69.21;99027.44;5080503;28;20139;-68
2021/05/24 00:56:04;;;;;;;6.40;2.13;;;;;;;10.33;68.58;99025.16;5077151;28;20094;-66
2021/05/24 00:58:30;;;;;;;7.63;2.40;;;;;;;10.15;69.47;99021.28;5079207;28;20044;-67
2021/05/24 01:00:56;;;;;;;8.20;2.05;;;;;;;10.27;68.73;99021.66;5079877;28;20063;-68
2021/05/24 01:03:23;;;;;;;19.77;3.30;;;;;;;10.27;68.65;99015.41;5080060;28;20052;-67
2021/05/24 01:05:49;;;;;;;13.68;4.05;;;;;;;10.04;69.36;99015.09;5077026;28;21081;-67
2021/05/24 01:08:16;;;;;;;6.40;2.00;;;;;;;9.99;69.46;99026.91;5078816;28;20070;-68
2021/05/24 01:10:44;;;;;;;7.18;2.50;;;;;;;9.91;69.56;99022.06;5080123;28;20044;-68
2021/05/24 01:13:12;;;;;;;6.45;2.20;;;;;;;9.83;69.72;99009.03;5080140;28;20059;-68
2021/05/24 01:15:38;;;;;;;12.50;4.55;;;;;;;9.84;69.77;99029.81;5076639;28;20048;-70
2021/05/24 01:18:06;;;;;;;28.48;7.60;;;;;;;9.75;69.96;99022.22;5077745;28;20087;-67
2021/05/24 01:20:32;;;;;;;64.87;15.23;;;;;;;9.81;69.98;99028.47;5079814;28;20486;-68
2021/05/24 01:25:29;;;;;;;70.90;17.13;;;;;;;9.76;70.22;99026.59;5078389;28;20131;-69
2021/05/24 01:28:02;;;;;;;42.90;10.85;;;;;;;9.73;70.34;99027.16;5080144;28;20558;-68
2021/05/24 01:30:28;;;;;;;36.45;11.52;;;;;;;9.91;69.67;99030.25;5079653;28;20060;-69
2021/05/24 01:32:54;;;;;;;26.30;5.72;;;;;;;9.95;69.39;99031.31;5076987;28;20044;-69
2021/05/24 01:35:20;;;;;;;19.13;4.15;;;;;;;10.04;68.98;99032.31;5079008;28;20067;-68
2021/05/24 01:37:47;;;;;;;15.38;3.50;;;;;;;10.03;69.10;99027.94;5079721;28;20127;-69
2021/05/24 01:40:14;;;;;;;18.92;3.80;;;;;;;9.95;69.37;99025.03;5078413;28;20044;-69
2021/05/24 01:42:40;;;;;;;9.70;2.50;;;;;;;10.05;68.82;99033.09;5075950;28;20040;-67
2021/05/24 01:45:08;;;;;;;9.13;2.63;;;;;;;9.92;69.23;99037.34;5078522;28;20048;-66
2021/05/24 01:47:34;;;;;;;10.10;2.95;;;;;;;10.02;69.05;99039.16;5058876;28;20571;-67
2021/05/24 01:50:00;;;;;;;11.25;2.33;;;;;;;10.08;68.76;99044.28;5076310;28;20579;-67
2021/05/24 01:52:27;;;;;;;;;;;;;;;10.16;68.55;99036.56;5074489;28;20074;-66
2021/05/24 01:54:54;;;;;;;12.60;2.67;;;;;;;10.17;68.34;99039.00;5075672;28;20380;-67
2021/05/24 01:57:21;;;;;;;19.70;2.80;;;;;;;10.25;68.17;99039.47;5078645;28;20322;-67
2021/05/24 01:59:48;;;;;;;10.25;2.53;;;;;;;10.32;67.92;99048.94;5074612;28;20046;-66
2021/05/24 02:02:15;;;;;;;10.82;2.70;;;;;;;10.32;67.99;99054.41;5077090;28;20051;-66
2021/05/24 02:04:41;;;;;;;12.65;2.65;;;;;;;10.28;68.28;99047.88;5076137;28;20408;-67
2021/05/24 02:07:07;;;;;;;13.32;2.53;;;;;;;10.31;68.46;99049.22;5078860;28;20047;-67
2021/05/24 02:09:35;;;;;;;15.38;2.47;;;;;;;10.21;68.60;99050.16;5075524;28;20045;-66
2021/05/24 02:12:01;;;;;;;12.30;2.53;;;;;;;10.18;68.78;99048.81;5076408;28;20105;-66
2021/05/24 02:14:28;;;;;;;8.07;2.40;;;;;;;10.29;68.58;99056.91;5076902;28;20045;-66
2021/05/24 02:16:55;;;;;;;11.63;2.63;;;;;;;10.30;68.16;99048.41;5078706;28;20055;-67
2021/05/24 02:19:22;;;;;;;8.05;2.40;;;;;;;10.46;67.84;99076.41;5075517;28;20044;-66
2021/05/24 02:21:48;;;;;;;11.05;2.65;;;;;;;10.56;67.68;99080.13;5076831;28;20059;-68
2021/05/24 02:24:14;;;;;;;11.02;2.35;;;;;;;10.55;67.64;99073.03;5075058;28;20044;-66
2021/05/24 02:26:42;;;;;;;16.83;2.13;;;;;;;10.74;67.32;99078.50;5075389;28;20056;-68
2021/05/24 02:29:08;;;;;;;;;;;;;;;10.85;67.02;99081.91;5070882;28;20082;-66
2021/05/24 02:31:37;;;;;;;9.65;2.42;;;;;;;10.98;66.61;99080.38;5077795;28;22124;-67
2021/05/24 02:34:04;;;;;;;5.25;2.08;;;;;;;11.07;66.23;99084.91;5075951;28;20060;-67
2021/05/24 02:36:31;;;;;;;9.82;2.20;;;;;;;11.17;66.19;99081.19;5074070;28;20056;-66
2021/05/24 02:38:57;;;;;;;7.83;2.30;;;;;;;11.25;65.78;99082.44;5075242;28;20465;-68
2021/05/24 02:41:23;;;;;;;8.15;2.92;;;;;;;11.41;65.26;99087.69;5074160;28;20316;-67
2021/05/24 02:43:49;;;;;;;5.43;1.88;;;;;;;11.40;65.06;99089.63;5075731;28;20158;-67
2021/05/24 02:46:16;;;;;;;14.80;2.67;;;;;;;11.49;65.02;99101.50;5073801;28;20054;-68
2021/05/24 02:48:43;;;;;;;12.30;2.40;;;;;;;11.48;65.00;99091.69;5076692;28;20102;-68
2021/05/24 02:51:09;;;;;;;8.85;2.22;;;;;;;11.44;65.06;99095.31;5074173;28;20309;-67
2021/05/24 02:53:35;;;;;;;10.23;2.20;;;;;;;11.44;65.17;99106.25;5076624;28;20083;-66
2021/05/24 02:56:02;;;;;;;16.50;2.22;;;;;;;11.35;65.21;99096.00;5074115;28;20060;-67
2021/05/24 02:58:29;;;;;;;7.05;2.20;;;;;;;11.39;65.34;99103.59;5075746;28;20098;-66
2021/05/24 03:00:55;;;;;;;12.23;3.60;;;;;;;11.39;65.18;99109.88;5076746;28;20556;-67
2021/05/24 03:03:23;;;;;;;9.20;2.00;;;;;;;11.41;65.28;99101.38;5075172;28;20040;-67
2021/05/24 03:05:50;;;;;;;7.65;2.00;;;;;;;11.37;65.00;99100.34;5075075;28;20068;-67
2021/05/24 03:08:16;;;;;;;6.53;1.95;;;;;;;11.40;65.01;99106.06;5076686;28;20048;-67
2021/05/24 03:10:42;;;;;;;5.35;1.80;;;;;;;11.40;64.95;99091.53;5076292;28;20050;-67
2021/05/24 03:13:09;;;;;;;19.60;2.58;;;;;;;11.55;64.55;99090.47;5076087;28;20378;-68
2021/05/24 03:15:35;;;;;;;6.40;2.17;;;;;;;11.61;64.50;99094.75;5074971;28;20499;-65
2021/05/24 03:18:02;;;;;;;6.32;2.20;;;;;;;11.69;64.20;99080.38;5058568;28;20067;-67
2021/05/24 03:20:28;;;;;;;7.78;2.00;;;;;;;11.33;65.07;99090.00;5060217;28;20037;-67
2021/05/24 03:22:55;;;;;;;8.20;2.70;;;;;;;11.57;64.52;99080.06;5073345;28;20525;-66
2021/05/24 03:25:21;;;;;;;8.13;2.17;;;;;;;11.60;64.32;99066.56;5076083;28;20572;-68
2021/05/24 03:27:48;;;;;;;9.20;2.22;;;;;;;11.68;64.15;99078.75;5074619;28;20058;-67
2021/05/24 03:30:16;;;;;;;12.60;2.58;;;;;;;11.64;64.46;99083.22;5076088;28;20052;-68
2021/05/24 03:32:42;;;;;;;7.78;2.13;;;;;;;11.75;64.57;99081.09;5074061;28;20565;-68
2021/05/24 03:35:09;;;;;;;7.65;2.28;;;;;;;11.69;64.44;99068.63;5077072;28;20056;-68
2021/05/24 03:37:35;;;;;;;;;;;;;;;11.79;64.46;99082.16;5075987;28;20053;-67
2021/05/24 03:40:04;;;;;;;9.20;2.10;;;;;;;11.82;64.29;99078.81;5074821;28;19924;-67
2021/05/24 03:42:30;;;;;;;7.63;2.40;;;;;;;11.80;64.84;99074.72;5074496;28;20158;-67
2021/05/24 03:44:56;;;;;;;7.85;2.30;;;;;;;11.80;64.79;99089.25;5080269;28;20052;-65
2021/05/24 03:47:22;;;;;;;11.15;2.35;;;;;;;11.86;65.00;99095.44;5081166;28;20044;-68
2021/05/24 03:49:48;;;;;;;12.20;2.75;;;;;;;11.97;64.63;99096.09;5079332;28;20052;-67
2021/05/24 03:52:15;;;;;;;18.10;2.72;;;;;;;12.03;64.28;99097.63;5078248;28;20080;-67
2021/05/24 03:54:42;;;;;;;13.50;2.58;;;;;;;12.07;64.31;99100.59;5078656;28;20072;-68
2021/05/24 03:57:10;;;;;;;13.02;2.60;;;;;;;12.11;63.95;99110.66;5079355;28;20536;-68
2021/05/24 03:59:36;;;;;;;11.27;2.33;;;;;;;12.18;63.68;99115.75;5079664;28;20080;-67
2021/05/24 04:02:03;;;;;;;8.73;2.70;;;;;;;12.26;63.63;99116.97;5078112;28;20048;-68
2021/05/24 04:04:29;;;;;;;7.72;2.65;;;;;;;12.31;63.27;99112.19;5077811;28;20330;-68
2021/05/24 04:06:58;;;;;;;9.63;2.45;;;;;;;12.30;63.31;99123.47;5077746;28;20048;-67
2021/05/24 04:09:25;;;;;;;9.70;2.50;;;;;;;12.32;63.38;99134.94;5077349;28;20072;-68
2021/05/24 04:11:51;;;;;;;10.30;2.50;;;;;;;12.31;63.37;99147.81;5077213;28;20072;-66
2021/05/24 04:14:19;;;;;;;11.80;3.15;;;;;;;12.36;63.35;99157.88;5079854;28;20052;-67
2021/05/24 04:16:45;;;;;;;10.38;2.50;;;;;;;12.38;63.24;99172.09;5080065;28;20051;-67
2021/05/24 04:19:12;;;;;;;11.98;3.15;;;;;;;12.37;63.67;99181.44;5077743;28;20047;-67
2021/05/24 04:21:39;;;;;;;9.68;2.30;;;;;;;12.40;62.99;99196.47;5076952;28;20051;-67
2021/05/24 04:24:06;;;;;;;11.40;2.80;;;;;;;12.45;62.21;99208.16;5077142;28;20048;-67
2021/05/24 04:26:32;;;;;;;8.50;2.38;;;;;;;12.50;61.19;99233.84;5058977;28;20052;-68
2021/05/24 04:28:59;;;;;;;10.55;2.22;;;;;;;12.56;60.89;99238.13;5075434;28;20051;-67
2021/05/24 04:31:26;;;;;;;8.52;2.08;;;;;;;12.66;60.46;99245.38;5072528;28;20050;-68
2021/05/24 04:33:52;;;;;;;9.23;2.30;;;;;;;12.63;59.61;99239.34;5076303;28;20044;-68
2021/05/24 04:36:18;;;;;;;7.55;1.95;;;;;;;12.59;59.80;99221.09;5077051;28;20076;-67
2021/05/24 04:38:45;;;;;;;6.45;2.05;;;;;;;12.73;59.58;99240.31;5075233;28;20048;-67
2021/05/24 04:41:11;;;;;;;6.13;2.03;;;;;;;12.71;59.45;99240.59;5074881;28;20075;-68
2021/05/24 04:43:41;;;;;;;10.30;2.10;;;;;;;12.79;59.51;99236.34;5075376;28;20051;-69
2021/05/24 04:46:07;;;;;;;14.73;2.13;;;;;;;12.87;59.43;99241.13;5073367;28;20070;-70
2021/05/24 04:48:34;;;;;;;7.90;2.00;;;;;;;12.87;58.72;99241.13;5077404;28;20040;-68
2021/05/24 04:51:00;;;;;;;6.53;2.22;;;;;;;13.03;58.33;99252.63;5075727;28;20083;-69
2021/05/24 04:53:26;;;;;;;7.38;2.00;;;;;;;13.13;58.06;99248.88;5072003;28;20047;-68
2021/05/24 04:55:53;;;;;;;6.20;1.73;;;;;;;13.23;57.67;99236.88;5076611;28;20046;-68
2021/05/24 04:58:24;;;;;;;6.13;2.05;;;;;;;13.29;57.03;99238.38;5057682;28;20693;-66
2021/05/24 05:00:50;;;;;;;4.65;1.65;;;;;;;13.31;56.35;99249.06;5063240;28;20500;-68
2021/05/24 05:03:17;;;;;;;7.28;1.70;;;;;;;13.37;55.88;99260.75;5077009;28;20066;-67
2021/05/24 05:05:44;;;;;;;6.10;1.88;;;;;;;13.34;55.66;99253.94;5077702;28;20517;-67
2021/05/24 05:08:10;;;;;;;15.63;2.03;;;;;;;13.44;55.45;99283.13;5071888;28;20048;-67
2021/05/24 05:10:36;;;;;;;8.05;1.90;;;;;;;13.45;55.69;99282.00;5079873;28;20052;-70
2021/05/24 05:13:02;;;;;;;8.98;2.00;;;;;;;13.51;55.97;99291.78;5077472;28;20044;-67
2021/05/24 05:15:28;;;;;;;9.55;2.22;;;;;;;13.59;54.75;99298.50;5074759;28;20650;-68
2021/05/24 05:17:55;;;;;;;11.55;1.75;;;;;;;13.60;54.13;99297.38;5075430;28;20040;-68
2021/05/24 05:20:21;;;;;;;7.93;1.67;;;;;;;13.74;54.02;99297.34;5078288;28;20131;-69
2021/05/24 05:22:48;;;;;;;7.97;2.00;;;;;;;13.72;53.96;99289.38;5076255;28;20048;-69
2021/05/24 05:25:15;;;;;;;8.43;1.80;;;;;;;13.75;54.15;99305.28;5072834;28;20043;-68
2021/05/24 05:27:42;;;;;;;6.32;1.95;;;;;;;13.78;54.18;99305.78;5074813;28;20049;-67
2021/05/24 05:30:09;;;;;;;6.22;1.75;;;;;;;13.81;54.24;99311.44;5074164;28;20090;-68
2021/05/24 05:32:35;;;;;;;11.02;1.70;;;;;;;13.87;54.21;99318.47;5076607;28;20123;-68
2021/05/24 05:35:01;;;;;;;12.88;1.90;;;;;;;13.99;54.02;99325.38;5074543;28;20076;-68
2021/05/24 05:37:28;;;;;;;8.88;2.05;;;;;;;14.07;53.85;99316.38;5075774;28;20048;-67
2021/05/24 05:39:57;;;;;;;16.45;2.25;;;;;;;14.14;53.77;99326.94;5067414;28;20040;-68
2021/05/24 05:42:23;;;;;;;9.73;1.83;;;;;;;13.88;54.45;99314.59;5073831;28;20121;-67
2021/05/24 05:44:49;;;;;;;8.63;1.60;;;;;;;14.17;54.18;99324.41;5074170;28;20048;-69
2021/05/24 05:47:16;;;;;;;11.20;2.00;;;;;;;14.29;53.99;99325.78;5075923;28;20098;-68
2021/05/24 05:49:47;;;;;;;7.72;1.90;;;;;;;14.41;54.06;99311.47;5077307;28;20044;-69
2021/05/24 05:52:15;;;;;;;6.05;1.60;;;;;;;14.26;54.49;99302.47;5076307;28;20044;-68
2021/05/24 05:54:41;;;;;;;9.52;1.83;;;;;;;14.31;54.72;99307.84;5075401;28;20094;-67
2021/05/24 05:57:08;;;;;;;6.13;1.67;;;;;;;14.38;55.25;99303.88;5074980;28;20051;-69
2021/05/24 05:59:34;;;;;;;9.00;2.25;;;;;;;14.54;54.97;99294.09;5071303;28;20463;-66
2021/05/24 06:02:00;;;;;;;8.63;1.70;;;;;;;14.59;54.82;99298.63;5074832;28;20052;-68
2021/05/24 06:04:26;;;;;;;10.00;1.60;;;;;;;14.55;55.10;99292.97;5076967;28;20044;-69
2021/05/24 06:06:52;;;;;;;15.23;2.00;;;;;;;14.63;54.17;99294.16;5072744;28;20052;-69
2021/05/24 06:09:18;;;;;;;5.18;1.65;;;;;;;14.69;53.63;99287.38;5075043;28;20037;-69
2021/05/24 06:11:46;;;;;;;8.65;1.63;;;;;;;14.55;53.71;99292.97;5072086;28;20123;-69
2021/05/24 06:14:13;;;;;;;12.95;1.83;;;;;;;14.73;53.68;99295.84;5074102;28;20040;-70
2021/05/24 06:16:39;;;;;;;11.45;1.58;;;;;;;14.53;53.31;99291.66;5072433;28;20040;-68
2021/05/24 06:19:05;;;;;;;7.78;2.10;;;;;;;14.65;53.02;99283.66;5073316;28;20036;-68
2021/05/24 06:21:31;;;;;;;5.78;1.60;;;;;;;14.79;53.15;99269.03;5075239;28;20066;-70
2021/05/24 06:23:58;;;;;;;13.65;2.50;;;;;;;15.02;53.09;99280.78;5076102;28;20072;-68
2021/05/24 06:26:25;;;;;;;6.70;1.88;;;;;;;14.83;53.08;99281.00;5069851;28;20048;-67
2021/05/24 06:28:51;;;;;;;4.90;1.45;;;;;;;14.61;52.98;99266.16;5070920;28;20096;-68
2021/05/24 06:31:18;;;;;;;18.67;2.15;;;;;;;14.78;52.99;99265.44;5072687;28;20047;-69
2021/05/24 06:33:44;;;;;;;4.68;1.60;;;;;;;14.93;53.03;99263.41;5073306;28;20676;-69
2021/05/24 06:36:10;;;;;;;10.63;2.08;;;;;;;15.09;53.06;99266.56;5075411;28;20082;-66
2021/05/24 06:38:36;;;;;;;11.63;1.98;;;;;;;15.27;52.17;99272.94;5074242;28;20778;-68
2021/05/24 06:41:02;;;;;;;7.32;1.83;;;;;;;15.38;51.72;99277.00;5071389;28;20044;-70
2021/05/24 06:43:28;;;;;;;10.60;3.10;;;;;;;15.39;51.23;99269.59;5074362;28;20441;-68
2021/05/24 06:45:54;;;;;;;14.35;2.88;;;;;;;15.38;50.67;99273.47;5071299;28;20057;-64
2021/05/24 06:48:22;;;;;;;22.90;3.80;;;;;;;15.41;50.15;99281.88;5072256;28;20523;-66
2021/05/24 06:50:48;;;;;;;10.68;2.30;;;;;;;15.37;50.10;99282.84;5072377;28;20090;-67
2021/05/24 06:53:14;;;;;;;6.63;1.83;;;;;;;14.88;50.70;99278.94;5071827;28;20037;-67
2021/05/24 06:55:40;;;;;;;12.38;2.60;;;;;;;15.16;50.96;99287.00;5072522;28;20040;-65
2021/05/24 06:58:06;;;;;;;8.02;1.75;;;;;;;14.93;50.55;99283.50;5070585;28;20211;-66
2021/05/24 07:00:31;;;;;;;25.00;3.58;;;;;;;15.37;50.45;99291.09;5071317;28;20047;-66
2021/05/24 07:02:58;;;;;;;12.88;2.22;;;;;;;15.65;49.25;99301.88;5084496;28;20276;-66
2021/05/24 07:05:24;;;;;;;18.10;2.90;;;;;;;15.41;49.71;99297.63;5074117;28;20139;-66
2021/05/24 07:07:51;;;;;;;13.38;2.40;;;;;;;15.25;49.28;99281.53;5057582;28;20051;-67
2021/05/24 07:10:17;;;;;;;10.23;2.28;;;;;;;15.16;49.38;99306.28;5072754;28;20056;-65
2021/05/24 07:12:43;;;;;;;13.98;2.00;;;;;;;15.11;49.62;99287.13;5074770;28;20050;-66
2021/05/24 07:15:09;;;;;;;6.60;1.80;;;;;;;15.17;49.17;99294.13;5073911;28;20045;-66
2021/05/24 07:17:36;;;;;;;17.98;2.35;;;;;;;15.26;49.40;99288.66;5073669;28;20134;-66
2021/05/24 07:20:03;;;;;;;10.18;2.15;;;;;;;15.56;48.36;99286.16;5078139;28;20634;-66
2021/05/24 07:22:31;;;;;;;11.52;1.92;;;;;;;15.98;48.43;99294.00;5076234;28;20522;-67
2021/05/24 07:25:03;;;;;;;13.23;1.90;;;;;;;16.24;48.10;99295.13;5079113;28;20070;-66
2021/05/24 07:27:29;;;;;;;13.25;1.92;;;;;;;16.27;47.77;99300.81;5077701;28;20113;-66
2021/05/24 07:29:55;;;;;;;17.98;1.83;;;;;;;16.50;47.97;99308.91;5076287;28;20441;-66
2021/05/24 07:32:21;;;;;;;15.15;3.10;;;;;;;16.60;47.37;99316.03;5073229;28;20664;-65
2021/05/24 07:34:49;;;;;;;16.35;2.20;;;;;;;16.70;47.41;99312.94;5072104;28;20051;-64
2021/05/24 07:37:14;;;;;;;12.70;2.03;;;;;;;16.63;46.42;99315.41;5073261;28;20059;-66
2021/05/24 07:39:42;;;;;;;8.65;1.95;;;;;;;16.41;46.40;99299.84;5075818;28;20036;-68
2021/05/24 07:42:08;;;;;;;9.27;1.60;;;;;;;16.74;46.10;99326.91;5058350;28;20051;-68
2021/05/24 07:44:35;;;;;;;7.20;1.77;;;;;;;16.97;46.73;99334.94;5060471;28;20052;-68
2021/05/24 07:47:02;;;;;;;9.60;1.90;;;;;;;16.90;46.26;99334.66;5077309;28;20050;-68
2021/05/24 07:49:28;;;;;;;8.07;1.77;;;;;;;17.09;45.80;99348.09;5073216;28;20497;-68
2021/05/24 07:51:55;;;;;;;13.30;3.05;;;;;;;17.25;45.75;99345.63;5068143;28;20075;-67
2021/05/24 07:54:22;;;;;;;7.50;1.77;;;;;;;17.20;45.66;99348.56;5065542;28;20045;-67
2021/05/24 07:56:49;;;;;;;8.95;1.67;;;;;;;17.21;45.36;99345.47;5067938;28;20686;-67
2021/05/24 07:59:15;;;;;;;4.80;1.40;;;;;;;17.21;45.67;99339.13;5073883;28;20049;-67
2021/05/24 08:01:41;;;;;;;14.55;1.80;;;;;;;17.28;46.02;99343.00;5075607;28;20142;-69
2021/05/24 08:04:07;;;;;;;6.30;1.73;;;;;;;17.40;44.77;99345.06;5078807;28;20047;-67
2021/05/24 08:06:33;;;;;;;12.75;1.67;;;;;;;17.66;44.86;99352.44;5078410;28;20197;-69
2021/05/24 08:08:59;;;;;;;22.00;2.88;;;;;;;17.35;44.15;99349.97;5075372;28;20481;-67
2021/05/24 08:11:25;;;;;;;11.57;2.10;;;;;;;17.67;43.39;99347.69;5080755;28;20048;-69
2021/05/24 08:13:53;;;;;;;12.88;2.38;;;;;;;17.70;43.94;99366.38;5079804;28;20040;-70
2021/05/24 08:16:19;;;;;;;8.60;2.15;;;;;;;17.93;43.73;99360.56;5079022;28;20048;-69
2021/05/24 08:18:45;;;;;;;7.57;2.03;;;;;;;17.98;43.15;99363.13;5076324;28;20140;-66
2021/05/24 08:21:12;;;;;;;6.10;1.45;;;;;;;17.91;43.18;99362.84;5076935;28;20051;-70
2021/05/24 08:23:38;;;;;;;10.45;2.20;;;;;;;17.69;43.37;99367.50;5077574;28;20561;-69
2021/05/24 08:26:05;;;;;;;12.00;2.00;;;;;;;17.01;44.20;99377.34;5076375;28;20052;-67
2021/05/24 08:28:31;;;;;;;11.07;1.95;;;;;;;16.81;44.94;99381.59;5071950;28;20047;-67
2021/05/24 08:30:59;;;;;;;6.72;1.70;;;;;;;17.00;44.47;99376.56;5076829;28;20045;-69
2021/05/24 08:33:25;;;;;;;19.95;2.47;;;;;;;17.36;44.55;99373.69;5076786;28;20520;-67
2021/05/24 08:35:52;;;;;;;4.88;1.30;;;;;;;16.85;45.00;99375.09;5077166;28;20049;-69
2021/05/24 08:38:19;;;;;;;17.35;2.20;;;;;;;17.00;45.04;99371.03;5080256;28;20405;-69
2021/05/24 08:40:46;;;;;;;9.52;1.80;;;;;;;17.37;44.37;99372.53;5076509;28;20148;-69
2021/05/24 08:43:14;;;;;;;10.20;1.98;;;;;;;17.47;44.60;99371.34;5079689;28;20044;-70
2021/05/24 08:45:42;;;;;;;3.92;1.45;;;;;;;17.19;44.36;99382.84;5077814;28;20097;-69
2021/05/24 08:48:10;;;;;;;15.35;2.08;;;;;;;17.21;44.99;99384.13;5075994;28;20052;-69
2021/05/24 08:50:37;;;;;;;8.45;1.77;;;;;;;17.60;44.27;99378.63;5079005;28;20055;-70
2021/05/24 08:53:04;;;;;;;7.00;1.83;;;;;;;17.71;43.09;99385.41;5078384;28;20531;-71
2021/05/24 08:55:31;;;;;;;8.75;1.67;;;;;;;17.94;42.90;99382.34;5077450;28;20056;-70
2021/05/24 08:57:57;;;;;;;10.57;1.75;;;;;;;18.26;42.89;99379.22;5080281;28;20085;-71
2021/05/24 09:00:23;;;;;;;5.13;1.50;;;;;;;18.35;42.60;99381.94;5076694;28;20123;-70
2021/05/24 09:02:51;;;;;;;13.05;2.00;;;;;;;17.85;42.67;99373.28;5079834;28;20047;-71
2021/05/24 09:05:19;;;;;;;18.50;2.85;;;;;;;18.11;42.14;99381.44;5077584;28;20424;-70
2021/05/24 09:07:50;;;;;;;12.23;2.20;;;;;;;17.64;43.48;99381.53;5080353;28;20053;-72
2021/05/24 09:10:17;;;;;;;9.68;2.28;;;;;;;17.59;43.36;99379.75;5080257;28;20043;-71
2021/05/24 09:12:43;;;;;;;5.60;1.60;;;;;;;16.96;44.02;99370.06;5080116;28;20178;-71
2021/05/24 09:15:14;;;;;;;12.38;2.25;;;;;;;17.55;43.13;99365.78;5078407;28;20048;-71
2021/05/24 09:17:42;;;;;;;12.25;2.33;;;;;;;17.92;43.22;99372.78;5075965;28;20044;-71
2021/05/24 09:20:28;;;;;;;11.45;2.25;;;;;;;17.66;43.57;99371.78;5077980;28;20051;-70
2021/05/24 09:23:14;;;;;;;9.10;2.40;;;;;;;18.12;43.00;99371.22;5076708;28;20067;-71
2021/05/24 09:25:52;;;;;;;7.95;2.75;;;;;;;18.05;43.25;99357.91;5072115;28;20056;-67
2021/05/24 09:28:37;;;;;;;21.67;6.05;;;;;;;18.52;42.05;99381.00;5077584;28;20135;-68
2021/05/24 09:31:09;;;;;;;11.45;3.70;;;;;;;18.04;42.64;99363.78;5073177;28;20078;-68
2021/05/24 09:33:36;;;;;;;10.93;3.03;;;;;;;18.50;42.22;99352.84;5076239;28;21502;-68
2021/05/24 09:36:05;;;;;;;11.85;2.10;;;;;;;18.67;41.70;99352.69;5075720;28;20048;-67
2021/05/24 09:38:37;;;;;;;11.05;2.50;;;;;;;18.96;41.35;99345.38;5078903;28;20040;-69
2021/05/24 09:41:05;;;;;;;9.90;1.80;;;;;;;18.99;41.26;99357.75;5089477;28;20477;-69
2021/05/24 09:43:34;;;;;;;7.65;1.55;;;;;;;18.45;41.64;99364.94;5072904;28;20505;-66
2021/05/24 09:46:09;;;;;;;5.57;1.52;;;;;;;17.93;42.11;99374.38;5075087;28;20241;-69
2021/05/24 09:48:36;;;;;;;13.27;2.00;;;;;;;17.80;42.33;99363.22;5073249;28;20052;-66
2021/05/24 09:51:05;;;;;;;9.00;1.80;;;;;;;18.04;41.32;99359.06;5073666;28;20055;-67
2021/05/24 09:53:31;;;;;;;8.48;1.75;;;;;;;18.53;41.37;99366.00;5067502;28;20053;-69
2021/05/24 09:56:09;;;;;;;10.43;2.20;;;;;;;18.37;41.77;99351.97;5072751;28;20068;-66
2021/05/24 09:58:36;;;;;;;12.52;1.80;;;;;;;18.81;40.39;99333.00;5073995;28;20045;-67
2021/05/24 10:01:29;;;;;;;11.73;1.60;;;;;;;18.68;40.42;99351.53;5073730;28;20048;-66
2021/05/24 10:03:57;;;;;;;7.88;1.67;;;;;;;18.58;40.13;99338.09;5043262;28;20044;-67
2021/05/24 10:06:24;;;;;;;16.23;1.92;;;;;;;18.51;40.45;99341.41;5072255;28;20057;-65
2021/05/24 10:08:51;;;;;;;6.82;1.58;;;;;;;18.46;40.13;99361.00;5073502;28;20125;-69
2021/05/24 10:11:18;;;;;;;2.80;1.40;;;;;;;18.03;41.16;99351.91;5073290;28;20508;-69
2021/05/24 10:13:44;;;;;;;7.72;2.20;;;;;;;17.96;41.76;99357.13;5075185;28;20048;-68
2021/05/24 10:16:12;;;;;;;7.00;2.20;;;;;;;18.05;42.05;99346.84;5074621;28;20044;-66
2021/05/24 10:18:38;;;;;;;7.80;1.60;;;;;;;17.43;43.47;99338.88;5073963;28;20131;-67
2021/05/24 10:21:05;;;;;;;5.53;1.38;;;;;;;17.51;43.26;99342.72;5077102;28;20091;-69
2021/05/24 10:23:32;;;;;;;10.10;1.90;;;;;;;17.43;43.43;99340.84;5076015;28;20451;-68
2021/05/24 10:26:00;;;;;;;;;;;;;;;17.14;44.56;99342.41;5078379;28;20102;-66
2021/05/24 10:28:28;;;;;;;3.63;1.20;;;;;;;17.14;42.77;99340.44;5075061;28;20029;-67
2021/05/24 10:30:56;;;;;;;13.00;4.00;;;;;;;17.60;42.40;99334.38;5077611;28;20464;-68
2021/05/24 10:33:26;;;;;;;;;;;;;;;17.94;42.34;99338.09;5078664;28;20146;-67
2021/05/24 10:35:52;;;;;;;14.20;2.80;;;;;;;17.69;42.38;99321.34;5076139;28;19959;-65
2021/05/24 10:38:29;;;;;;;8.18;1.80;;;;;;;17.97;42.00;99322.78;5079055;28;20415;-67
2021/05/24 10:41:07;;;;;;;4.30;1.42;;;;;;;17.81;42.32;99317.06;5078788;28;20056;-65
2021/05/24 10:43:44;;;;;;;5.05;1.42;;;;;;;18.38;41.10;99314.84;5079526;28;20155;-69
2021/05/24 10:46:34;;;;;;;6.20;1.40;;;;;;;18.13;41.00;99334.09;5076919;28;20055;-66
2021/05/24 10:49:05;;;;;;;9.07;1.10;;;;;;;18.01;41.32;99334.78;5078142;28;20072;-67
2021/05/24 10:52:01;;;;;;;8.43;1.40;;;;;;;18.73;40.23;99322.78;5077204;28;20154;-66
2021/05/24 10:54:35;;;;;;;3.72;1.35;;;;;;;19.32;39.66;99329.19;5066757;28;20506;-67
2021/05/24 10:57:19;;;;;;;5.10;1.33;;;;;;;18.45;40.78;99334.50;5080820;28;20375;-67
2021/05/24 10:59:53;;;;;;;16.10;2.13;;;;;;;18.88;40.82;99340.75;5082062;28;20098;-66
2021/05/24 11:02:33;;;;;;;2.90;1.17;;;;;;;18.33;40.97;99343.53;5081822;28;20487;-65
2021/05/24 11:05:04;;;;;;;10.90;2.13;;;;;;;17.78;41.34;99350.88;5082058;28;20053;-66
2021/05/24 11:07:34;;;;;;;7.68;1.70;;;;;;;17.87;41.62;99351.66;5082810;28;20055;-65
2021/05/24 11:10:20;;;;;;;8.50;1.60;;;;;;;18.17;40.57;99346.09;5080507;28;20048;-67
2021/05/24 11:12:49;;;;;;;8.13;2.38;;;;;;;18.39;40.43;99346.91;5082814;28;20056;-65
2021/05/24 11:15:17;;;;;;;10.55;2.03;;;;;;;18.46;40.64;99358.25;5097183;28;20044;-67
2021/05/24 11:18:18;;;;;;;11.60;2.03;;;;;;;18.09;41.38;99344.19;5080432;28;20098;-70
2021/05/24 11:20:49;;;;;;;14.75;2.40;;;;;;;18.12;41.71;99357.38;5081189;28;20076;-65
2021/05/24 11:26:37;;;;;;;11.57;1.85;;;;;;;17.93;42.34;99355.81;5080933;28;20059;-67
2021/05/24 11:29:11;;;;;;;7.30;2.58;;;;;;;17.60;42.51;99344.66;5079776;28;20047;-66
2021/05/24 11:31:48;;;;;;;14.18;3.08;;;;;;;17.64;41.98;99357.47;5082382;28;20093;-67
2021/05/24 11:34:30;;;;;;;10.50;3.50;;;;;;;17.89;41.75;99354.88;5080063;28;20055;-69
2021/05/24 11:36:57;;;;;;;10.32;2.55;;;;;;;18.05;41.19;99359.84;5081028;28;20093;-70
2021/05/24 11:39:38;;;;;;;7.65;2.05;;;;;;;18.21;41.25;99360.09;5096631;28;20067;-68
2021/05/24 11:42:07;;;;;;;12.70;2.67;;;;;;;18.25;41.73;99358.25;5097972;28;20067;-67